createdAt,value
2019-03-06T00:00:02.658Z,99978
2019-03-06T00:05:25.498Z,99976
2019-03-06T00:10:48.305Z,99967
2019-03-06T00:16:11.238Z,99958
2019-03-06T00:21:34.521Z,99956
2019-03-06T00:26:57.275Z,99955
2019-03-06T00:32:20.050Z,99949
2019-03-06T00:37:42.902Z,99949
2019-03-06T00:43:05.662Z,99951
2019-03-06T00:48:28.416Z,99954
2019-03-06T00:53:51.181Z,99955
2019-03-06T00:59:13.937Z,99954
2019-03-06T01:04:37.138Z,99944
2019-03-06T01:09:59.952Z,99945
2019-03-06T01:15:22.787Z,99936
2019-03-06T01:20:45.713Z,99936
2019-03-06T01:26:08.652Z,99937
2019-03-06T01:31:32.043Z,99925
2019-03-06T01:36:54.795Z,99918
2019-03-06T01:42:17.651Z,99913
2019-03-06T01:47:40.417Z,99908
2019-03-06T01:53:03.164Z,99908
2019-03-06T01:58:25.958Z,99896
2019-03-06T02:03:48.711Z,99896
2019-03-06T02:09:11.372Z,99895
2019-03-06T02:14:34.020Z,99884
2019-03-06T02:19:56.745Z,99872
2019-03-06T02:25:19.401Z,99869
2019-03-06T02:30:42.958Z,99856
2019-03-06T02:36:06.431Z,99851
2019-03-06T02:41:29.208Z,99837
2019-03-06T02:46:51.846Z,99823
2019-03-06T02:52:14.516Z,99812
2019-03-06T02:57:37.220Z,99810
2019-03-06T03:02:59.953Z,99804
2019-03-06T03:08:22.620Z,99804
2019-03-06T03:13:45.307Z,99803
2019-03-06T03:19:08.005Z,99793
2019-03-06T03:24:30.805Z,99776
2019-03-06T03:29:53.491Z,99789
2019-03-06T03:35:16.347Z,99790
2019-03-06T03:40:39.163Z,99773
2019-03-06T03:46:01.873Z,99763
2019-03-06T03:51:24.696Z,99754
2019-03-06T03:56:47.455Z,99739
2019-03-06T04:02:10.169Z,99723
2019-03-06T04:07:33.007Z,99727
2019-03-06T04:12:55.735Z,99725
2019-03-06T04:18:19.415Z,99717
2019-03-06T04:23:42.155Z,99708
2019-03-06T04:29:04.882Z,99705
2019-03-06T04:34:28.490Z,99701
2019-03-06T04:39:51.302Z,99702
2019-03-06T04:45:14.064Z,99695
2019-03-06T04:50:36.820Z,99702
2019-03-06T04:55:59.623Z,99702
2019-03-06T05:01:22.365Z,99701
2019-03-06T05:06:45.118Z,99693
2019-03-06T05:12:07.934Z,99690
2019-03-06T05:17:30.798Z,99674
2019-03-06T05:22:53.653Z,99660
2019-03-06T05:28:16.445Z,99651
2019-03-06T05:33:39.215Z,99644
2019-03-06T05:39:02.144Z,99636
2019-03-06T05:44:24.820Z,99617
2019-03-06T05:49:47.539Z,99622
2019-03-06T05:55:10.193Z,99626
2019-03-06T06:00:32.855Z,99613
2019-03-06T06:05:55.523Z,99606
2019-03-06T06:11:18.177Z,99601
2019-03-06T06:16:40.879Z,99575
2019-03-06T06:22:03.698Z,99560
2019-03-06T06:27:26.337Z,99541
2019-03-06T06:32:49.078Z,99556
2019-03-06T06:38:11.767Z,99547
2019-03-06T06:43:34.464Z,99527
2019-03-06T06:48:57.106Z,99542
2019-03-06T06:54:20.018Z,99530
2019-03-06T06:59:42.860Z,99530
2019-03-06T07:05:05.679Z,99524
2019-03-06T07:10:29.388Z,99506
2019-03-06T07:15:52.257Z,99509
2019-03-06T07:21:15.020Z,99500
2019-03-06T07:26:37.749Z,99497
2019-03-06T07:32:00.451Z,99486
2019-03-06T07:37:28.509Z,99479
2019-03-06T07:42:46.735Z,99478
2019-03-06T07:48:10.275Z,99463
2019-03-06T07:53:33.081Z,99453
2019-03-06T07:58:55.913Z,99452
2019-03-06T08:04:19.653Z,99455
2019-03-06T08:09:42.486Z,99456
2019-03-06T08:15:05.246Z,99448
2019-03-06T08:20:28.204Z,99455
2019-03-06T08:25:51.653Z,99457
2019-03-06T08:31:14.414Z,99452
2019-03-06T08:36:37.233Z,99432
2019-03-06T08:42:00.145Z,99420
2019-03-06T08:47:22.812Z,99400
2019-03-06T08:52:45.524Z,99396
2019-03-06T08:58:08.271Z,99376
2019-03-06T09:03:31.128Z,99373
2019-03-06T09:08:53.937Z,99365
2019-03-06T09:14:17.577Z,99363
2019-03-06T09:19:40.328Z,99343
2019-03-06T09:25:03.197Z,99341
2019-03-06T09:30:25.807Z,99331
2019-03-06T09:35:48.551Z,99327
2019-03-06T09:41:11.412Z,99308
2019-03-06T09:46:34.087Z,99297
2019-03-06T09:51:57.813Z,99294
2019-03-06T09:57:20.476Z,99285
2019-03-06T10:02:44.374Z,99268
2019-03-06T10:08:07.002Z,99259
2019-03-06T10:13:29.678Z,99244
2019-03-06T10:18:54.556Z,99230
2019-03-06T10:24:17.275Z,99217
2019-03-06T10:29:40.185Z,99217
2019-03-06T10:35:02.970Z,99201
2019-03-06T10:40:25.845Z,99196
2019-03-06T10:45:48.573Z,99176
2019-03-06T10:51:11.271Z,99164
2019-03-06T10:56:33.933Z,99159
2019-03-06T11:01:56.621Z,99151
2019-03-06T11:07:19.317Z,99143
2019-03-06T11:12:42.020Z,99124
2019-03-06T11:18:04.914Z,99136
2019-03-06T11:23:27.842Z,99117
2019-03-06T11:28:50.608Z,99110
2019-03-06T11:34:13.382Z,99100
2019-03-06T11:39:36.838Z,99088
2019-03-06T11:45:00.318Z,99079
2019-03-06T11:50:23.122Z,99070
2019-03-06T11:55:46.949Z,99067
2019-03-06T12:01:10.746Z,99050
2019-03-06T12:06:33.543Z,99042
2019-03-06T12:11:56.253Z,99041
2019-03-06T12:17:18.984Z,99033
2019-03-06T12:22:41.683Z,99023
2019-03-06T12:28:04.445Z,99003
2019-03-06T12:33:27.220Z,99002
2019-03-06T12:38:49.860Z,98985
2019-03-06T12:44:12.646Z,98977
2019-03-06T12:49:35.356Z,98964
2019-03-06T12:54:58.052Z,98953
2019-03-06T13:00:20.792Z,98923
2019-03-06T13:05:43.564Z,98911
2019-03-06T13:11:06.211Z,98909
2019-03-06T13:16:28.977Z,98890
2019-03-06T13:21:51.657Z,98882
2019-03-06T13:27:14.337Z,98869
2019-03-06T13:32:37.350Z,98861
2019-03-06T13:38:00.229Z,98845
2019-03-06T13:43:22.937Z,98836
2019-03-06T13:48:45.740Z,98834
2019-03-06T13:54:08.539Z,98827
2019-03-06T13:59:32.375Z,98828
2019-03-06T14:04:55.308Z,98818
2019-03-06T14:10:19.159Z,98816
2019-03-06T14:15:42.034Z,98831
2019-03-06T14:21:05.781Z,98824
2019-03-06T14:26:28.515Z,98820
2019-03-06T14:31:51.239Z,98818
2019-03-06T14:37:13.925Z,98812
2019-03-06T14:42:36.577Z,98805
2019-03-06T14:47:59.507Z,98802
2019-03-06T14:53:22.122Z,98796
2019-03-06T14:58:44.818Z,98775
2019-03-06T15:04:07.464Z,98781
2019-03-06T15:09:31.151Z,98765
2019-03-06T15:14:54.409Z,98761
2019-03-06T15:20:17.227Z,98757
2019-03-06T15:25:39.946Z,98761
2019-03-06T15:31:02.626Z,98772
2019-03-06T15:36:25.470Z,98774
2019-03-06T15:41:48.255Z,98769
2019-03-06T15:47:12.182Z,98768
2019-03-06T15:52:34.889Z,98779
2019-03-06T15:57:57.612Z,98775
2019-03-06T16:03:20.431Z,98788
2019-03-06T16:08:43.325Z,98773
2019-03-06T16:14:05.964Z,98761
2019-03-06T16:19:28.753Z,98748
2019-03-06T16:24:51.428Z,98747
2019-03-06T16:30:14.075Z,98737
2019-03-06T16:35:36.802Z,98738
2019-03-06T16:40:59.427Z,98721
2019-03-06T16:46:22.211Z,98721
2019-03-06T16:51:46.265Z,98710
2019-03-06T16:57:11.970Z,98705
2019-03-06T17:02:34.740Z,98707
2019-03-06T17:07:58.266Z,98704
2019-03-06T17:13:21.234Z,98696
2019-03-06T17:18:44.189Z,98693
2019-03-06T17:24:07.018Z,98694
2019-03-06T17:29:29.700Z,98688
2019-03-06T17:34:52.493Z,98685
2019-03-06T17:40:15.173Z,98690
2019-03-06T17:45:37.858Z,98692
2019-03-06T17:51:00.870Z,98692
2019-03-06T17:56:23.431Z,98684
2019-03-06T18:01:47.142Z,98679
2019-03-06T18:07:10.880Z,98684
2019-03-06T18:12:33.691Z,98681
2019-03-06T18:17:56.554Z,98681
2019-03-06T18:23:20.298Z,98672
2019-03-06T18:28:45.870Z,98672
2019-03-06T18:34:09.252Z,98669
2019-03-06T18:39:31.945Z,98661
2019-03-06T18:44:54.697Z,98662
2019-03-06T18:50:18.352Z,98658
2019-03-06T18:55:41.182Z,98647
2019-03-06T19:01:04.114Z,98644
2019-03-06T19:06:26.895Z,98633
2019-03-06T19:11:49.727Z,98624
2019-03-06T19:17:13.721Z,98613
2019-03-06T19:22:38.013Z,98608
2019-03-06T19:28:01.736Z,98617
2019-03-06T19:33:25.351Z,98614
2019-03-06T19:38:48.177Z,98604
2019-03-06T19:44:10.962Z,98595
2019-03-06T19:49:33.632Z,98588
2019-03-06T19:54:56.416Z,98591
2019-03-06T20:00:19.085Z,98586
2019-03-06T20:05:42.033Z,98584
2019-03-06T20:11:04.732Z,98584
2019-03-06T20:16:27.377Z,98583
2019-03-06T20:21:50.185Z,98579
2019-03-06T20:27:12.914Z,98561
2019-03-06T20:32:35.762Z,98569
2019-03-06T20:37:58.920Z,98567
2019-03-06T20:43:21.847Z,98565
2019-03-06T20:48:45.409Z,98554
2019-03-06T20:54:08.062Z,98550
2019-03-06T20:59:30.787Z,98548
2019-03-06T21:04:53.429Z,98552
2019-03-06T21:10:16.073Z,98548
2019-03-06T21:15:38.869Z,98553
2019-03-06T21:21:01.479Z,98548
2019-03-06T21:26:24.174Z,98537
2019-03-06T21:31:46.808Z,98539
2019-03-06T21:37:09.633Z,98534
2019-03-06T21:42:32.329Z,98527
2019-03-06T21:47:55.014Z,98523
2019-03-06T21:53:17.706Z,98524
2019-03-06T21:58:40.347Z,98517
2019-03-06T22:04:03.089Z,98518
2019-03-06T22:09:25.846Z,98516
2019-03-06T22:14:48.518Z,98514
2019-03-06T22:20:11.386Z,98512
2019-03-06T22:25:34.778Z,98508
2019-03-06T22:30:57.417Z,98499
2019-03-06T22:36:20.164Z,98498
2019-03-06T22:41:43.219Z,98492
2019-03-06T22:47:06.336Z,98491
2019-03-06T22:52:29.056Z,98485
2019-03-06T22:57:51.718Z,98472
2019-03-06T23:03:14.379Z,98472
2019-03-06T23:08:37.126Z,98463
2019-03-06T23:13:59.908Z,98455
2019-03-06T23:19:24.248Z,98443
2019-03-06T23:24:48.750Z,98438
2019-03-06T23:30:09.914Z,98430
2019-03-06T23:35:32.855Z,98417
2019-03-06T23:40:55.602Z,98408
2019-03-06T23:46:18.973Z,98401
2019-03-06T23:51:42.955Z,98390
2019-03-06T23:57:05.695Z,98380
